createdAt,value
2016-03-22T00:00:23.079Z,1009.24
2016-03-22T00:01:23.129Z,1009.27
2016-03-22T00:02:23.194Z,1009.25
2016-03-22T00:03:23.245Z,1009.3
2016-03-22T00:04:23.278Z,1009.22
2016-03-22T00:05:23.342Z,1009.25
2016-03-22T00:06:23.393Z,1009.23
2016-03-22T00:07:23.442Z,1009.2
2016-03-22T00:08:23.491Z,1009.18
2016-03-22T00:09:23.541Z,1009.22
2016-03-22T00:10:23.591Z,1009.17
2016-03-22T00:11:23.641Z,1009.18
2016-03-22T00:12:23.691Z,1009.18
2016-03-22T00:13:23.771Z,1009.15
2016-03-22T00:14:23.788Z,1009.17
2016-03-22T00:15:23.839Z,1009.17
2016-03-22T00:16:23.904Z,1009.12
2016-03-22T00:17:23.953Z,1009.07
2016-03-22T00:18:24.003Z,1009.09
2016-03-22T00:19:24.052Z,1009.1
2016-03-22T00:20:24.102Z,1009.05
2016-03-22T00:21:24.136Z,1009.06
2016-03-22T00:22:24.201Z,1009.05
2016-03-22T00:23:24.251Z,1009.04
2016-03-22T00:24:24.301Z,1009.05
2016-03-22T00:25:24.350Z,1009.04
2016-03-22T00:26:24.399Z,1009.04
2016-03-22T00:27:24.449Z,1009.06
2016-03-22T00:28:24.498Z,1009.05
2016-03-22T00:29:24.548Z,1009.04
2016-03-22T00:30:24.597Z,1009.03
2016-03-22T00:31:24.662Z,1009.05
2016-03-22T00:32:24.711Z,1008.99
2016-03-22T00:33:24.761Z,1008.99
2016-03-22T00:34:24.811Z,1009.01
2016-03-22T00:35:24.860Z,1008.96
2016-03-22T00:36:24.910Z,1008.94
2016-03-22T00:37:24.959Z,1008.95
2016-03-22T00:38:25.010Z,1008.98
2016-03-22T00:39:25.058Z,1008.98
2016-03-22T00:40:25.108Z,1008.96
2016-03-22T00:41:25.157Z,1008.94
2016-03-22T00:42:25.207Z,1008.99
2016-03-22T00:43:25.257Z,1008.97
2016-03-22T00:44:25.306Z,1008.95
2016-03-22T00:45:25.371Z,1008.94
2016-03-22T00:46:25.406Z,1008.96
2016-03-22T00:47:25.455Z,1008.96
2016-03-22T00:48:25.520Z,1008.92
2016-03-22T00:49:25.570Z,1008.93
2016-03-22T00:50:25.620Z,1008.9
2016-03-22T00:51:25.669Z,1008.92
2016-03-22T00:52:25.718Z,1008.9
2016-03-22T00:53:25.767Z,1008.88
2016-03-22T00:54:25.818Z,1008.88
2016-03-22T00:55:25.867Z,1008.84
2016-03-22T00:56:25.917Z,1008.82
2016-03-22T00:57:25.966Z,1008.85
2016-03-22T00:58:26.016Z,1008.85
2016-03-22T00:59:26.065Z,1008.82
2016-03-22T01:00:26.115Z,1008.8
2016-03-22T01:01:26.164Z,1008.79
2016-03-22T01:02:26.229Z,1008.82
2016-03-22T01:03:26.264Z,1008.81
2016-03-22T01:04:26.313Z,1008.75
2016-03-22T01:05:26.378Z,1008.71
2016-03-22T01:06:26.428Z,1008.72
2016-03-22T01:07:26.462Z,1008.72
2016-03-22T01:08:26.527Z,1008.66
2016-03-22T01:09:26.577Z,1008.69
2016-03-22T01:10:26.610Z,1008.69
2016-03-22T01:11:26.676Z,1008.67
2016-03-22T01:12:26.726Z,1008.66
2016-03-22T01:13:26.774Z,1008.59
2016-03-22T01:14:26.825Z,1008.56
2016-03-22T01:15:26.874Z,1008.53
2016-03-22T01:16:26.924Z,1008.52
2016-03-22T01:17:26.973Z,1008.5
2016-03-22T01:18:27.023Z,1008.53
2016-03-22T01:19:27.072Z,1008.56
2016-03-22T01:20:27.122Z,1008.57
2016-03-22T01:21:27.171Z,1008.55
2016-03-22T01:22:27.236Z,1008.55
2016-03-22T01:23:27.271Z,1008.58
2016-03-22T01:24:27.320Z,1008.53
2016-03-22T01:25:27.400Z,1008.56
2016-03-22T01:26:27.435Z,1008.55
2016-03-22T01:27:27.484Z,1008.58
2016-03-22T01:28:27.534Z,1008.53
2016-03-22T01:29:27.583Z,1008.52
2016-03-22T01:30:27.633Z,1008.53
2016-03-22T01:31:27.683Z,1008.51
2016-03-22T01:32:27.733Z,1008.52
2016-03-22T01:33:27.782Z,1008.53
2016-03-22T01:34:27.831Z,1008.48
2016-03-22T01:35:27.897Z,1008.41
2016-03-22T01:36:27.930Z,1008.38
2016-03-22T01:37:27.980Z,1008.34
2016-03-22T01:38:28.045Z,1008.33
2016-03-22T01:39:28.095Z,1008.28
2016-03-22T01:40:28.144Z,1008.23
2016-03-22T01:41:28.179Z,1008.24
2016-03-22T01:42:28.243Z,1008.29
2016-03-22T01:43:28.293Z,1008.42
2016-03-22T01:44:28.327Z,1008.47
2016-03-22T01:45:28.392Z,1008.51
2016-03-22T01:46:28.442Z,1008.47
2016-03-22T01:47:28.490Z,1008.44
2016-03-22T01:48:28.541Z,1008.47
2016-03-22T01:49:28.590Z,1008.51
2016-03-22T01:50:28.640Z,1008.46
2016-03-22T01:51:28.690Z,1008.48
2016-03-22T01:52:28.739Z,1008.49
2016-03-22T01:53:28.789Z,1008.54
2016-03-22T01:54:28.839Z,1008.55
2016-03-22T01:55:28.887Z,1008.48
2016-03-22T01:56:28.937Z,1008.51
2016-03-22T01:57:28.999Z,1008.45
2016-03-22T01:58:29.035Z,1008.48
2016-03-22T01:59:29.072Z,1008.48
2016-03-22T02:00:29.107Z,1008.47
2016-03-22T02:01:29.143Z,1008.46
2016-03-22T02:02:29.182Z,1008.39
2016-03-22T02:03:29.226Z,1008.39
2016-03-22T02:04:29.271Z,1008.38
2016-03-22T02:05:29.316Z,1008.38
2016-03-22T02:06:29.360Z,1008.29
2016-03-22T02:07:29.406Z,1008.3
2016-03-22T02:08:29.454Z,1008.28
2016-03-22T02:09:29.501Z,1008.3
2016-03-22T02:10:29.549Z,1008.24
2016-03-22T02:11:29.598Z,1008.3
2016-03-22T02:12:29.646Z,1008.25
2016-03-22T02:13:29.709Z,1008.28
2016-03-22T02:14:29.743Z,1008.29
2016-03-22T02:15:29.808Z,1008.28
2016-03-22T02:16:29.856Z,1008.28
2016-03-22T02:17:29.906Z,1008.27
2016-03-22T02:18:29.956Z,1008.29
2016-03-22T02:19:30.005Z,1008.29
2016-03-22T02:20:30.055Z,1008.26
2016-03-22T02:21:30.104Z,1008.26
2016-03-22T02:22:30.153Z,1008.22
2016-03-22T02:23:30.203Z,1008.22
2016-03-22T02:24:30.269Z,1008.23
2016-03-22T02:25:30.302Z,1008.21
2016-03-22T02:26:30.352Z,1008.17
2016-03-22T02:27:30.417Z,1008.16
2016-03-22T02:28:30.466Z,1008.12
2016-03-22T02:29:30.500Z,1008.06
2016-03-22T02:30:30.555Z,1008.09
2016-03-22T02:31:30.604Z,1008.08
2016-03-22T02:32:30.670Z,1008.09
2016-03-22T02:33:30.719Z,1008.12
2016-03-22T02:34:30.753Z,1008.04
2016-03-22T02:35:30.819Z,1007.99
2016-03-22T02:36:30.868Z,1007.99
2016-03-22T02:37:30.901Z,1007.96
2016-03-22T02:38:30.951Z,1008
2016-03-22T02:39:31.017Z,1007.98
2016-03-22T02:40:31.066Z,1007.91
2016-03-22T02:41:31.116Z,1007.95
2016-03-22T02:42:31.165Z,1007.95
2016-03-22T02:43:31.214Z,1008.01
2016-03-22T02:44:31.265Z,1007.99
2016-03-22T02:45:31.314Z,1008.05
2016-03-22T02:46:31.363Z,1008.06
2016-03-22T02:47:31.413Z,1008.08
2016-03-22T02:48:31.494Z,1008.05
2016-03-22T02:49:31.528Z,1008.04
2016-03-22T02:50:31.578Z,1007.97
2016-03-22T02:51:31.627Z,1007.96
2016-03-22T02:52:31.661Z,1007.98
2016-03-22T02:53:31.727Z,1007.96
2016-03-22T02:54:31.775Z,1007.97
2016-03-22T02:55:31.825Z,1008.04
2016-03-22T02:56:31.875Z,1008.03
2016-03-22T02:57:31.925Z,1008.05
2016-03-22T02:58:31.974Z,1007.98
2016-03-22T02:59:32.024Z,1008.06
2016-03-22T03:00:32.073Z,1008.1
2016-03-22T03:01:32.138Z,1008.14
2016-03-22T03:02:32.188Z,1008.16
2016-03-22T03:03:32.221Z,1008.21
2016-03-22T03:04:32.287Z,1008.23
2016-03-22T03:05:32.321Z,1008.2
2016-03-22T03:06:32.387Z,1008.18
2016-03-22T03:07:32.420Z,1008.21
2016-03-22T03:08:32.485Z,1008.18
2016-03-22T03:09:32.520Z,1008.19
2016-03-22T03:10:32.568Z,1008.17
2016-03-22T03:11:32.634Z,1008.11
2016-03-22T03:12:32.684Z,1008.06
2016-03-22T03:13:32.733Z,1008.04
2016-03-22T03:14:32.783Z,1008.08
2016-03-22T03:15:32.848Z,1008.04
2016-03-22T03:16:32.881Z,1008.08
2016-03-22T03:17:32.932Z,1008.11
2016-03-22T03:18:32.997Z,1008.1
2016-03-22T03:19:33.030Z,1008.13
2016-03-22T03:20:33.096Z,1008.09
2016-03-22T03:21:33.130Z,1008.12
2016-03-22T03:22:33.179Z,1008.08
2016-03-22T03:23:33.228Z,1008.11
2016-03-22T03:24:33.278Z,1008.12
2016-03-22T03:25:33.343Z,1008.06
2016-03-22T03:26:33.378Z,1008.11
2016-03-22T03:27:33.427Z,1008.06
2016-03-22T03:28:33.491Z,1008.06
2016-03-22T03:29:33.542Z,1008.09
2016-03-22T03:30:33.591Z,1008.08
2016-03-22T03:31:33.657Z,1008.04
2016-03-22T03:32:33.706Z,1008.02
2016-03-22T03:33:33.740Z,1008
2016-03-22T03:34:33.790Z,1008.04
2016-03-22T03:35:33.840Z,1008.01
2016-03-22T03:36:33.920Z,1008.04
2016-03-22T03:37:33.954Z,1007.99
2016-03-22T03:38:34.004Z,1008
2016-03-22T03:39:34.054Z,1008
2016-03-22T03:40:34.103Z,1008.04
2016-03-22T03:41:34.151Z,1008.05
2016-03-22T03:42:34.187Z,1008.04
2016-03-22T03:43:34.251Z,1007.99
2016-03-22T03:44:34.285Z,1008
2016-03-22T03:45:34.334Z,1007.97
2016-03-22T03:46:34.400Z,1008
2016-03-22T03:47:34.450Z,1007.96
2016-03-22T03:48:34.500Z,1007.91
2016-03-22T03:49:34.548Z,1007.91
2016-03-22T03:50:34.597Z,1007.88
2016-03-22T03:51:34.664Z,1007.93
2016-03-22T03:52:34.697Z,1007.91
2016-03-22T03:53:34.747Z,1007.89
2016-03-22T03:54:34.812Z,1007.86
2016-03-22T03:55:34.861Z,1007.83
2016-03-22T03:56:34.896Z,1007.88
2016-03-22T03:57:34.945Z,1007.86
2016-03-22T03:58:35.026Z,1007.85
2016-03-22T03:59:35.060Z,1007.87
2016-03-22T04:00:35.110Z,1007.86
2016-03-22T04:01:35.143Z,1007.84
2016-03-22T04:02:35.208Z,1007.8
2016-03-22T04:03:35.258Z,1007.77
2016-03-22T04:04:35.307Z,1007.77
2016-03-22T04:05:35.357Z,1007.76
2016-03-22T04:06:35.407Z,1007.74
2016-03-22T04:07:35.457Z,1007.76
2016-03-22T04:08:35.521Z,1007.78
2016-03-22T04:09:35.571Z,1007.8
2016-03-22T04:10:35.604Z,1007.73
2016-03-22T04:11:35.654Z,1007.79
2016-03-22T04:12:35.720Z,1007.76
2016-03-22T04:13:35.754Z,1007.77
2016-03-22T04:14:35.819Z,1007.75
2016-03-22T04:15:35.853Z,1007.77
2016-03-22T04:16:35.903Z,1007.74
2016-03-22T04:17:35.952Z,1007.71
2016-03-22T04:18:36.001Z,1007.67
2016-03-22T04:19:36.051Z,1007.61
2016-03-22T04:20:36.116Z,1007.62
2016-03-22T04:21:36.151Z,1007.69
2016-03-22T04:22:36.216Z,1007.71
2016-03-22T04:23:36.264Z,1007.67
2016-03-22T04:24:36.331Z,1007.62
2016-03-22T04:25:36.364Z,1007.65
2016-03-22T04:26:36.430Z,1007.65
2016-03-22T04:27:36.463Z,1007.68
2016-03-22T04:28:36.513Z,1007.67
2016-03-22T04:29:36.563Z,1007.67
2016-03-22T04:30:36.613Z,1007.72
2016-03-22T04:31:36.661Z,1007.69
2016-03-22T04:32:36.710Z,1007.73
2016-03-22T04:33:36.777Z,1007.71
2016-03-22T04:34:36.826Z,1007.69
2016-03-22T04:35:36.876Z,1007.71
2016-03-22T04:36:36.924Z,1007.67
2016-03-22T04:37:36.990Z,1007.64
2016-03-22T04:38:37.024Z,1007.62
2016-03-22T04:39:37.074Z,1007.58
2016-03-22T04:40:37.124Z,1007.59
2016-03-22T04:41:37.173Z,1007.59
2016-03-22T04:42:37.222Z,1007.58
2016-03-22T04:43:37.273Z,1007.6
2016-03-22T04:44:37.321Z,1007.57
2016-03-22T04:45:37.370Z,1007.6
2016-03-22T04:46:37.421Z,1007.57
2016-03-22T04:47:37.470Z,1007.56
2016-03-22T04:48:37.551Z,1007.57
2016-03-22T04:49:37.585Z,1007.59
2016-03-22T04:50:37.619Z,1007.6
2016-03-22T04:51:37.684Z,1007.56
2016-03-22T04:52:37.734Z,1007.61
2016-03-22T04:53:37.767Z,1007.6
2016-03-22T04:54:37.833Z,1007.55
2016-03-22T04:55:37.882Z,1007.57
2016-03-22T04:56:37.948Z,1007.58
2016-03-22T04:57:37.981Z,1007.59
2016-03-22T04:58:38.047Z,1007.56
2016-03-22T04:59:38.080Z,1007.56
2016-03-22T05:00:38.114Z,1007.56
2016-03-22T05:01:38.180Z,1007.55
2016-03-22T05:02:38.229Z,1007.57
2016-03-22T05:03:38.279Z,1007.61
2016-03-22T05:04:38.328Z,1007.57
2016-03-22T05:05:38.378Z,1007.61
2016-03-22T05:06:38.443Z,1007.61
2016-03-22T05:07:38.493Z,1007.6
2016-03-22T05:08:38.527Z,1007.57
2016-03-22T05:09:38.576Z,1007.58
2016-03-22T05:10:38.657Z,1007.62
2016-03-22T05:11:38.676Z,1007.6
2016-03-22T05:12:38.740Z,1007.6
2016-03-22T05:13:38.806Z,1007.62
2016-03-22T05:14:38.840Z,1007.62
2016-03-22T05:15:38.889Z,1007.62
2016-03-22T05:16:38.940Z,1007.54
2016-03-22T05:17:39.004Z,1007.58
2016-03-22T05:18:39.038Z,1007.62
2016-03-22T05:19:39.087Z,1007.66
2016-03-22T05:20:39.137Z,1007.61
2016-03-22T05:21:39.203Z,1007.57
2016-03-22T05:22:39.236Z,1007.51
2016-03-22T05:23:39.301Z,1007.56
2016-03-22T05:24:39.350Z,1007.55
2016-03-22T05:25:39.385Z,1007.58
2016-03-22T05:26:39.450Z,1007.58
2016-03-22T05:27:39.484Z,1007.61
2016-03-22T05:28:39.534Z,1007.57
2016-03-22T05:29:39.583Z,1007.55
2016-03-22T05:30:39.649Z,1007.57
2016-03-22T05:31:39.682Z,1007.55
2016-03-22T05:32:39.747Z,1007.57
2016-03-22T05:33:39.797Z,1007.54
2016-03-22T05:34:39.830Z,1007.5
2016-03-22T05:35:39.913Z,1007.51
2016-03-22T05:36:39.946Z,1007.54
2016-03-22T05:37:40.014Z,1007.53
2016-03-22T05:38:40.040Z,1007.49
2016-03-22T05:39:40.078Z,1007.51
2016-03-22T05:40:40.210Z,1007.52
2016-03-22T05:41:40.181Z,1007.47
2016-03-22T05:42:40.247Z,1007.44
2016-03-22T05:43:40.281Z,1007.38
2016-03-22T05:44:40.330Z,1007.36
2016-03-22T05:45:40.396Z,1007.35
2016-03-22T05:46:40.430Z,1007.35
2016-03-22T05:47:40.479Z,1007.31
2016-03-22T05:48:40.529Z,1007.32
2016-03-22T05:49:40.578Z,1007.32
2016-03-22T05:50:40.627Z,1007.24
2016-03-22T05:51:40.678Z,1007.26
2016-03-22T05:52:40.727Z,1007.25
2016-03-22T05:53:40.777Z,1007.24
2016-03-22T05:54:40.826Z,1007.19
2016-03-22T05:55:40.876Z,1007.14
2016-03-22T05:56:40.941Z,1007.14
2016-03-22T05:57:40.974Z,1007.13
2016-03-22T05:58:41.025Z,1007.15
2016-03-22T05:59:41.105Z,1007.17
2016-03-22T06:00:41.140Z,1007.18
2016-03-22T06:01:41.189Z,1007.22
2016-03-22T06:02:41.238Z,1007.19
2016-03-22T06:03:41.288Z,1007.19
2016-03-22T06:04:41.337Z,1007.18
2016-03-22T06:05:41.387Z,1007.17
2016-03-22T06:06:41.437Z,1007.16
2016-03-22T06:07:41.486Z,1007.14
2016-03-22T06:08:41.536Z,1007.18
2016-03-22T06:09:41.601Z,1007.11
2016-03-22T06:10:41.651Z,1007.18
2016-03-22T06:11:41.700Z,1007.17
2016-03-22T06:12:41.749Z,1007.2
2016-03-22T06:13:41.784Z,1007.2
2016-03-22T06:14:41.849Z,1007.18
2016-03-22T06:15:41.898Z,1007.22
2016-03-22T06:16:41.947Z,1007.19
2016-03-22T06:17:41.997Z,1007.16
2016-03-22T06:18:42.030Z,1007.16
2016-03-22T06:19:42.096Z,1007.16
2016-03-22T06:20:42.147Z,1007.18
2016-03-22T06:21:42.196Z,1007.14
2016-03-22T06:22:42.246Z,1007.14
2016-03-22T06:23:42.310Z,1007.13
2016-03-22T06:24:42.344Z,1007.15
2016-03-22T06:25:42.410Z,1007.15
2016-03-22T06:26:42.443Z,1007.2
2016-03-22T06:27:42.509Z,1007.22
2016-03-22T06:28:42.557Z,1007.24
2016-03-22T06:29:42.624Z,1007.27
2016-03-22T06:30:42.657Z,1007.23
2016-03-22T06:31:42.723Z,1007.21
2016-03-22T06:32:42.741Z,1007.26
2016-03-22T06:33:42.806Z,1007.23
2016-03-22T06:34:42.840Z,1007.26
2016-03-22T06:35:42.905Z,1007.3
2016-03-22T06:36:42.971Z,1007.31
2016-03-22T06:37:43.004Z,1007.26
2016-03-22T06:38:43.054Z,1007.28
2016-03-22T06:39:43.103Z,1007.21
2016-03-22T06:40:43.137Z,1007.23
2016-03-22T06:41:43.187Z,1007.23
2016-03-22T06:42:43.252Z,1007.19
2016-03-22T06:43:43.318Z,1007.23
2016-03-22T06:44:43.351Z,1007.18
2016-03-22T06:45:43.417Z,1007.18
2016-03-22T06:46:43.481Z,1007.19
2016-03-22T06:47:43.516Z,1007.14
2016-03-22T06:48:43.580Z,1007.14
2016-03-22T06:49:43.614Z,1007.14
2016-03-22T06:50:43.663Z,1007.16
2016-03-22T06:51:43.729Z,1007.17
2016-03-22T06:52:43.763Z,1007.19
2016-03-22T06:53:43.829Z,1007.21
2016-03-22T06:54:43.863Z,1007.2
2016-03-22T06:55:43.912Z,1007.18
2016-03-22T06:56:43.962Z,1007.16
2016-03-22T06:57:44.010Z,1007.12
2016-03-22T06:58:44.046Z,1007.13
2016-03-22T06:59:44.110Z,1007.16
2016-03-22T07:00:44.160Z,1007.1
2016-03-22T07:01:44.209Z,1007.12
2016-03-22T07:02:44.274Z,1007.11
2016-03-22T07:03:44.309Z,1007.13
2016-03-22T07:04:44.358Z,1007.13
2016-03-22T07:05:44.424Z,1007.16
2016-03-22T07:06:44.504Z,1007.13
2016-03-22T07:07:44.512Z,1007.15
2016-03-22T07:08:44.577Z,1007.15
2016-03-22T07:09:44.611Z,1007.16
2016-03-22T07:10:44.661Z,1007.14
2016-03-22T07:11:44.725Z,1007.17
2016-03-22T07:12:44.776Z,1007.15
2016-03-22T07:13:44.841Z,1007.13
2016-03-22T07:14:44.875Z,1007.13
2016-03-22T07:15:44.908Z,1007.16
2016-03-22T07:16:44.974Z,1007.16
2016-03-22T07:17:45.008Z,1007.18
2016-03-22T07:18:45.072Z,1007.17
2016-03-22T07:19:45.107Z,1007.18
2016-03-22T07:20:45.171Z,1007.22
2016-03-22T07:21:45.221Z,1007.23
2016-03-22T07:22:45.271Z,1007.3
2016-03-22T07:23:45.335Z,1007.23
2016-03-22T07:24:45.370Z,1007.25
2016-03-22T07:25:45.419Z,1007.22
2016-03-22T07:26:45.468Z,1007.24
2016-03-22T07:27:45.534Z,1007.24
2016-03-22T07:28:45.631Z,1007.27
2016-03-22T07:29:45.618Z,1007.23
2016-03-22T07:30:45.682Z,1007.22
2016-03-22T07:31:45.732Z,1007.2
2016-03-22T07:32:45.767Z,1007.22
2016-03-22T07:33:45.831Z,1007.25
2016-03-22T07:34:45.881Z,1007.26
2016-03-22T07:35:45.915Z,1007.28
2016-03-22T07:36:45.981Z,1007.29
2016-03-22T07:37:46.030Z,1007.28
2016-03-22T07:38:46.079Z,1007.35
2016-03-22T07:39:46.129Z,1007.35
2016-03-22T07:40:46.178Z,1007.39
2016-03-22T07:41:46.228Z,1007.38
2016-03-22T07:42:46.277Z,1007.35
2016-03-22T07:43:46.328Z,1007.37
2016-03-22T07:44:46.392Z,1007.41
2016-03-22T07:45:46.442Z,1007.4
2016-03-22T07:46:46.492Z,1007.37
2016-03-22T07:47:46.525Z,1007.41
2016-03-22T07:48:46.591Z,1007.38
2016-03-22T07:49:46.640Z,1007.39
2016-03-22T07:50:46.675Z,1007.41
2016-03-22T07:51:46.724Z,1007.4
2016-03-22T07:52:46.788Z,1007.32
2016-03-22T07:53:46.838Z,1007.36
2016-03-22T07:54:46.888Z,1007.34
2016-03-22T07:55:46.937Z,1007.34
2016-03-22T07:56:47.002Z,1007.34
2016-03-22T07:57:47.037Z,1007.36
2016-03-22T07:58:47.087Z,1007.36
2016-03-22T07:59:47.135Z,1007.36
2016-03-22T08:00:47.185Z,1007.31
2016-03-22T08:01:47.235Z,1007.32
2016-03-22T08:02:47.284Z,1007.29
2016-03-22T08:03:47.334Z,1007.29
2016-03-22T08:04:47.384Z,1007.28
2016-03-22T08:05:47.433Z,1007.28
2016-03-22T08:06:47.499Z,1007.27
2016-03-22T08:07:47.548Z,1007.28
2016-03-22T08:08:47.598Z,1007.32
2016-03-22T08:09:47.647Z,1007.37
2016-03-22T08:10:47.697Z,1007.38
2016-03-22T08:11:47.747Z,1007.39
2016-03-22T08:12:47.795Z,1007.38
2016-03-22T08:13:47.845Z,1007.37
2016-03-22T08:14:47.895Z,1007.41
2016-03-22T08:15:47.944Z,1007.38
2016-03-22T08:16:47.994Z,1007.38
2016-03-22T08:17:48.044Z,1007.35
2016-03-22T08:18:48.094Z,1007.36
2016-03-22T08:19:48.143Z,1007.39
2016-03-22T08:20:48.192Z,1007.39
2016-03-22T08:21:48.241Z,1007.38
2016-03-22T08:22:48.292Z,1007.4
2016-03-22T08:23:48.357Z,1007.43
2016-03-22T08:24:48.391Z,1007.4
2016-03-22T08:25:48.440Z,1007.4
2016-03-22T08:26:48.505Z,1007.38
2016-03-22T08:27:48.555Z,1007.41
2016-03-22T08:28:48.589Z,1007.37
2016-03-22T08:29:48.655Z,1007.37
2016-03-22T08:30:48.704Z,1007.38
2016-03-22T08:31:48.753Z,1007.34
2016-03-22T08:32:48.803Z,1007.36
2016-03-22T08:33:48.852Z,1007.29
2016-03-22T08:34:48.901Z,1007.35
2016-03-22T08:35:48.951Z,1007.35
2016-03-22T08:36:49.000Z,1007.32
2016-03-22T08:37:49.051Z,1007.35
2016-03-22T08:38:49.115Z,1007.31
2016-03-22T08:39:49.150Z,1007.29
2016-03-22T08:40:49.200Z,1007.26
2016-03-22T08:41:49.248Z,1007.33
2016-03-22T08:42:49.298Z,1007.29
2016-03-22T08:43:49.364Z,1007.27
2016-03-22T08:44:49.414Z,1007.29
2016-03-22T08:45:49.463Z,1007.28
2016-03-22T08:46:49.511Z,1007.27
2016-03-22T08:47:49.562Z,1007.27
2016-03-22T08:48:49.611Z,1007.21
2016-03-22T08:49:49.661Z,1007.22
2016-03-22T08:50:49.711Z,1007.22
2016-03-22T08:51:49.760Z,1007.27
2016-03-22T08:52:49.810Z,1007.25
2016-03-22T08:53:49.859Z,1007.24
2016-03-22T08:54:49.909Z,1007.23
2016-03-22T08:55:49.974Z,1007.18
2016-03-22T08:56:50.023Z,1007.22
2016-03-22T08:57:50.074Z,1007.24
2016-03-22T08:58:50.107Z,1007.29
2016-03-22T08:59:50.172Z,1007.2
2016-03-22T09:00:50.222Z,1007.18
2016-03-22T09:01:50.257Z,1007.25
2016-03-22T09:02:50.321Z,1007.28
2016-03-22T09:03:50.370Z,1007.31
2016-03-22T09:04:50.420Z,1007.28
2016-03-22T09:05:50.470Z,1007.32
2016-03-22T09:06:50.517Z,1007.32
2016-03-22T09:07:50.566Z,1007.28
2016-03-22T09:08:50.631Z,1007.32
2016-03-22T09:09:50.665Z,1007.27
2016-03-22T09:10:50.730Z,1007.27
2016-03-22T09:11:50.780Z,1007.33
2016-03-22T09:12:50.814Z,1007.33
2016-03-22T09:13:50.864Z,1007.34
2016-03-22T09:14:50.928Z,1007.34
2016-03-22T09:15:50.978Z,1007.32
2016-03-22T09:16:51.027Z,1007.29
2016-03-22T09:17:51.093Z,1007.26
2016-03-22T09:18:51.126Z,1007.26
2016-03-22T09:19:51.177Z,1007.31
2016-03-22T09:20:51.241Z,1007.3
2016-03-22T09:21:51.274Z,1007.28
2016-03-22T09:22:51.324Z,1007.25
2016-03-22T09:23:51.390Z,1007.25
2016-03-22T09:24:51.424Z,1007.23
2016-03-22T09:25:51.473Z,1007.28
2016-03-22T09:26:51.539Z,1007.28
2016-03-22T09:27:51.573Z,1007.25
2016-03-22T09:28:51.637Z,1007.24
2016-03-22T09:29:51.687Z,1007.28
2016-03-22T09:30:51.737Z,1007.25
2016-03-22T09:31:51.787Z,1007.22
2016-03-22T09:32:51.836Z,1007.23
2016-03-22T09:33:51.886Z,1007.29
2016-03-22T09:34:51.935Z,1007.25
2016-03-22T09:35:51.984Z,1007.27
2016-03-22T09:36:52.035Z,1007.29
2016-03-22T09:37:52.084Z,1007.28
2016-03-22T09:38:52.133Z,1007.27
2016-03-22T09:39:52.183Z,1007.3
2016-03-22T09:40:52.233Z,1007.31
2016-03-22T09:41:52.283Z,1007.28
2016-03-22T09:42:52.347Z,1007.29
2016-03-22T09:43:52.397Z,1007.29
2016-03-22T09:44:52.446Z,1007.25
2016-03-22T09:45:52.497Z,1007.25
2016-03-22T09:46:52.546Z,1007.21
2016-03-22T09:47:52.595Z,1007.25
2016-03-22T09:48:52.644Z,1007.21
2016-03-22T09:49:52.694Z,1007.24
2016-03-22T09:50:52.744Z,1007.21
2016-03-22T09:51:52.793Z,1007.26
2016-03-22T09:52:52.843Z,1007.22
2016-03-22T09:53:52.893Z,1007.2
2016-03-22T09:54:52.942Z,1007.25
2016-03-22T09:55:52.992Z,1007.28
2016-03-22T09:56:53.041Z,1007.27
2016-03-22T09:57:53.107Z,1007.28
2016-03-22T09:58:53.140Z,1007.3
2016-03-22T09:59:53.206Z,1007.33
2016-03-22T10:00:53.255Z,1007.28
2016-03-22T10:01:53.304Z,1007.26
2016-03-22T10:02:53.354Z,1007.27
2016-03-22T10:03:53.404Z,1007.21
2016-03-22T10:04:53.453Z,1007.19
2016-03-22T10:05:53.504Z,1007.24
2016-03-22T10:06:53.553Z,1007.19
2016-03-22T10:07:53.602Z,1007.21
2016-03-22T10:08:53.652Z,1007.18
2016-03-22T10:09:53.701Z,1007.19
2016-03-22T10:10:53.767Z,1007.22
2016-03-22T10:11:53.816Z,1007.22
2016-03-22T10:12:53.866Z,1007.19
2016-03-22T10:13:53.900Z,1007.19
2016-03-22T10:14:53.965Z,1007.25
2016-03-22T10:15:54.014Z,1007.22
2016-03-22T10:16:54.048Z,1007.2
2016-03-22T10:17:54.097Z,1007.21
2016-03-22T10:18:54.163Z,1007.25
2016-03-22T10:19:54.213Z,1007.26
2016-03-22T10:20:54.262Z,1007.27
2016-03-22T10:21:54.311Z,1007.27
2016-03-22T10:22:54.361Z,1007.25
2016-03-22T10:23:54.410Z,1007.26
2016-03-22T10:24:54.476Z,1007.24
2016-03-22T10:25:54.557Z,1007.23
2016-03-22T10:26:54.560Z,1007.2
2016-03-22T10:27:54.609Z,1007.19
2016-03-22T10:28:54.659Z,1007.21
2016-03-22T10:29:54.724Z,1007.23
2016-03-22T10:30:54.773Z,1007.23
2016-03-22T10:31:54.823Z,1007.21
2016-03-22T10:32:54.873Z,1007.2
2016-03-22T10:33:54.922Z,1007.18
2016-03-22T10:34:54.971Z,1007.19
2016-03-22T10:35:55.021Z,1007.18
2016-03-22T10:36:55.071Z,1007.18
2016-03-22T10:37:55.120Z,1007.14
2016-03-22T10:38:55.170Z,1007.17
2016-03-22T10:39:55.220Z,1007.17
2016-03-22T10:40:55.269Z,1007.19
2016-03-22T10:41:55.318Z,1007.16
2016-03-22T10:42:55.367Z,1007.21
2016-03-22T10:43:55.417Z,1007.19
2016-03-22T10:44:55.483Z,1007.14
2016-03-22T10:45:55.533Z,1007.15
2016-03-22T10:46:55.582Z,1007.16
2016-03-22T10:47:55.631Z,1007.15
2016-03-22T10:48:55.681Z,1007.17
2016-03-22T10:49:55.731Z,1007.17
2016-03-22T10:50:55.780Z,1007.16
2016-03-22T10:51:55.829Z,1007.18
2016-03-22T10:52:55.894Z,1007.15
2016-03-22T10:53:55.929Z,1007.1
2016-03-22T10:54:55.979Z,1007.11
2016-03-22T10:55:56.028Z,1007.1
2016-03-22T10:56:56.077Z,1007.07
2016-03-22T10:57:56.127Z,1007.09
2016-03-22T10:58:56.192Z,1007.14
2016-03-22T10:59:56.243Z,1007.07
2016-03-22T11:00:56.276Z,1007.08
2016-03-22T11:01:56.340Z,1007.15
2016-03-22T11:02:56.391Z,1007.1
2016-03-22T11:03:56.438Z,1007.12
2016-03-22T11:04:56.482Z,1007.09
2016-03-22T11:05:56.525Z,1007.09
2016-03-22T11:06:56.568Z,1007.04
2016-03-22T11:07:56.613Z,1007.06
2016-03-22T11:08:56.656Z,1007.08
2016-03-22T11:09:56.703Z,1007.09
2016-03-22T11:10:56.767Z,1007.11
2016-03-22T11:11:56.798Z,1007.08
2016-03-22T11:12:56.862Z,1007.08
2016-03-22T11:13:56.908Z,1007.08
2016-03-22T11:14:56.958Z,1007.07
2016-03-22T11:15:56.992Z,1007.05
2016-03-22T11:16:57.055Z,1007.05
2016-03-22T11:17:57.104Z,1006.99
2016-03-22T11:18:57.154Z,1006.99
2016-03-22T11:19:57.202Z,1007
2016-03-22T11:20:57.251Z,1007
2016-03-22T11:21:57.300Z,1006.97
2016-03-22T11:22:57.349Z,1006.94
2016-03-22T11:23:57.399Z,1006.98
2016-03-22T11:24:57.465Z,1006.97
2016-03-22T11:25:57.514Z,1007
2016-03-22T11:26:57.548Z,1006.97
2016-03-22T11:27:57.629Z,1006.94
2016-03-22T11:28:57.662Z,1006.98
2016-03-22T11:29:57.712Z,1006.99
2016-03-22T11:30:57.761Z,1006.98
2016-03-22T11:31:57.812Z,1006.97
2016-03-22T11:32:57.861Z,1006.92
2016-03-22T11:33:57.911Z,1006.98
2016-03-22T11:34:57.959Z,1006.98
2016-03-22T11:35:58.041Z,1007.01
2016-03-22T11:36:58.059Z,1006.96
2016-03-22T11:37:58.109Z,1006.98
2016-03-22T11:38:58.158Z,1007
2016-03-22T11:39:58.207Z,1007
2016-03-22T11:40:58.258Z,1006.94
2016-03-22T11:41:58.322Z,1006.91
2016-03-22T11:42:58.372Z,1006.92
2016-03-22T11:43:58.406Z,1006.92
2016-03-22T11:44:58.471Z,1006.91
2016-03-22T11:45:58.521Z,1006.87
2016-03-22T11:46:58.571Z,1006.9
2016-03-22T11:47:58.619Z,1006.88
2016-03-22T11:48:58.669Z,1006.89
2016-03-22T11:49:58.718Z,1006.85
2016-03-22T11:50:58.769Z,1006.88
2016-03-22T11:51:58.818Z,1006.88
2016-03-22T11:52:58.868Z,1006.92
2016-03-22T11:53:58.932Z,1006.87
2016-03-22T11:54:58.982Z,1006.85
2016-03-22T11:55:59.016Z,1006.82
2016-03-22T11:56:59.082Z,1006.82
2016-03-22T11:57:59.115Z,1006.77
2016-03-22T11:58:59.181Z,1006.77
2016-03-22T11:59:59.231Z,1006.84
2016-03-22T12:00:59.279Z,1006.81
2016-03-22T12:01:59.329Z,1006.79
2016-03-22T12:02:59.379Z,1006.78
2016-03-22T12:03:59.428Z,1006.77
2016-03-22T12:04:59.478Z,1006.79
2016-03-22T12:05:59.543Z,1006.76
2016-03-22T12:06:59.577Z,1006.76
2016-03-22T12:07:59.627Z,1006.76
2016-03-22T12:08:59.675Z,1006.85